Time;durP1;ratioP1;P1;durP2;ratioP2;P2;SDS_P1;SDS_P2;PMS_P1;PMS_P2;Temp;Humidity;BMP_temperature;BMP_pressure;BME280_temperature;BME280_humidity;BME280_pressure;Samples;Min_cycle;Max_cycle;Signal;HPM_P1;HPM_P2
2021/06/06 00:00:17;;;;;;;43.92;26.52;;;;;;;19.00;67.63;97781.03;5017519;28;20033;-79
2021/06/06 00:02:42;;;;;;;43.53;25.45;;;;;;;19.27;67.21;97793.59;5010177;28;20046;-79
2021/06/06 00:05:10;;;;;;;40.78;22.83;;;;;;;19.27;67.13;97790.19;5012199;28;20511;-79
2021/06/06 00:07:36;;;;;;;39.20;23.05;;;;;;;19.27;67.26;97783.03;5018019;28;20036;-78
2021/06/06 00:10:01;;;;;;;42.50;23.88;;;;;;;19.29;67.14;97793.31;5051911;28;20037;-79
2021/06/06 00:12:27;;;;;;;44.05;26.77;;;;;;;19.25;67.29;97787.81;5016977;28;20041;-79
2021/06/06 00:14:52;;;;;;;46.55;27.02;;;;;;;19.21;67.39;97783.38;5022061;28;20040;-79
2021/06/06 00:17:18;;;;;;;49.20;26.98;;;;;;;19.23;67.84;97789.97;5012166;28;20108;-79
2021/06/06 00:19:43;;;;;;;43.17;25.10;;;;;;;19.18;67.46;97776.84;5027229;28;20033;-79
2021/06/06 00:22:08;;;;;;;47.95;26.67;;;;;;;19.23;67.42;97784.69;5033601;28;20349;-79
2021/06/06 00:24:35;;;;;;;41.88;24.23;;;;;;;19.21;67.52;97786.84;5030746;28;20037;-79
2021/06/06 00:27:02;;;;;;;39.30;23.08;;;;;;;19.25;67.10;97793.09;5033437;28;20086;-79
2021/06/06 00:29:27;;;;;;;40.47;24.13;;;;;;;19.21;67.31;97786.03;5016753;28;20035;-79
2021/06/06 00:31:53;;;;;;;40.47;23.38;;;;;;;19.13;67.82;97792.75;5015276;28;20041;-78
2021/06/06 00:34:19;;;;;;;42.80;25.67;;;;;;;19.16;67.40;97786.91;5020303;28;20042;-79
2021/06/06 00:36:45;;;;;;;40.33;24.48;;;;;;;19.17;67.37;97785.03;5030319;28;20056;-78
2021/06/06 00:39:11;;;;;;;42.92;24.23;;;;;;;19.20;67.35;97795.03;5045629;28;20044;-79
2021/06/06 00:41:38;;;;;;;47.30;26.23;;;;;;;19.11;67.08;97786.97;5033455;28;20055;-79
2021/06/06 00:44:04;;;;;;;41.25;24.42;;;;;;;19.17;67.17;97783.19;5014403;28;20030;-79
2021/06/06 00:46:30;;;;;;;41.20;24.00;;;;;;;19.21;67.00;97788.66;5032592;28;20039;-79
2021/06/06 00:48:56;;;;;;;44.03;24.30;;;;;;;19.19;67.18;97794.25;5033157;28;20438;-78
2021/06/06 00:51:26;;;;;;;42.90;25.95;;;;;;;19.10;67.64;97790.66;5033158;28;20036;-79
2021/06/06 00:53:53;;;;;;;41.60;24.65;;;;;;;19.12;67.30;97791.16;5016823;28;20033;-79
2021/06/06 00:56:23;;;;;;;40.40;24.08;;;;;;;19.04;67.63;97786.53;5032659;28;20033;-79
2021/06/06 00:58:50;;;;;;;40.78;24.85;;;;;;;19.17;66.91;97796.38;5028489;28;20087;-79
2021/06/06 01:01:17;;;;;;;38.83;24.85;;;;;;;19.21;67.26;97793.94;5019260;28;20071;-79
2021/06/06 01:03:48;;;;;;;43.15;26.50;;;;;;;19.05;67.42;97791.50;5002913;23;20522;-80
2021/06/06 01:06:17;;;;;;;47.33;27.00;;;;;;;19.05;67.57;97793.38;5010618;28;20037;-80
2021/06/06 01:08:43;;;;;;;45.50;26.65;;;;;;;19.12;67.79;97793.81;5006943;28;20380;-80
2021/06/06 01:11:24;;;;;;;49.28;28.83;;;;;;;18.95;67.54;97798.78;4996234;28;20033;-80
2021/06/06 01:13:54;;;;;;;46.03;24.90;;;;;;;19.06;67.14;97792.31;4993239;28;20022;-80
2021/06/06 01:16:40;;;;;;;51.40;28.13;;;;;;;18.86;68.02;97794.13;5007448;28;20061;-80
2021/06/06 01:19:32;;;;;;;52.72;27.33;;;;;;;18.93;67.58;97793.00;5001174;28;20045;-80
2021/06/06 01:22:11;;;;;;;51.15;27.35;;;;;;;18.91;67.89;97795.94;5018586;28;20419;-80
2021/06/06 01:24:41;;;;;;;47.97;26.17;;;;;;;19.03;67.33;97784.97;4995997;28;20404;-81
2021/06/06 01:27:12;;;;;;;53.92;29.90;;;;;;;19.11;66.92;97786.97;5013798;28;20491;-80
2021/06/06 01:30:08;;;;;;;53.33;29.48;;;;;;;18.86;67.74;97786.22;5013624;28;20091;-80
2021/06/06 01:32:41;;;;;;;56.40;30.38;;;;;;;18.90;67.07;97778.50;4993385;28;20040;-80
2021/06/06 01:35:20;;;;;;;57.05;31.52;;;;;;;18.99;67.19;97789.25;4997301;28;20260;-80
2021/06/06 01:37:48;;;;;;;52.60;28.50;;;;;;;19.08;67.07;97790.16;4979928;28;20025;-80
2021/06/06 01:40:17;;;;;;;51.72;29.08;;;;;;;19.05;66.91;97780.94;4997562;28;20416;-80
2021/06/06 01:42:47;;;;;;;56.20;31.15;;;;;;;18.99;67.11;97778.69;4996682;28;20060;-81
2021/06/06 01:45:17;;;;;;;49.58;29.95;;;;;;;19.04;66.94;97781.25;5013464;28;20080;-80
2021/06/06 01:47:44;;;;;;;51.92;28.67;;;;;;;19.04;67.15;97771.47;4996702;28;20065;-80
2021/06/06 01:50:21;;;;;;;58.38;32.72;;;;;;;18.84;67.41;97783.06;4996145;28;20039;-79
2021/06/06 01:52:47;;;;;;;62.80;32.13;;;;;;;19.05;67.03;97773.03;5012332;28;20033;-80
2021/06/06 01:55:15;;;;;;;59.35;33.30;;;;;;;19.04;66.85;97787.31;4994350;28;20033;-79
2021/06/06 01:57:42;;;;;;;60.00;31.45;;;;;;;19.02;66.96;97772.81;4966852;28;20100;-80
2021/06/06 02:00:14;;;;;;;60.65;33.30;;;;;;;18.79;67.18;97780.47;4993882;28;20041;-79
2021/06/06 02:02:39;;;;;;;60.47;31.75;;;;;;;19.01;66.54;97781.81;4989311;28;20030;-80
2021/06/06 02:05:13;;;;;;;55.10;30.38;;;;;;;18.94;66.76;97784.81;4977916;28;20135;-80
2021/06/06 02:07:41;;;;;;;64.23;32.97;;;;;;;18.95;67.03;97783.72;4989642;28;20038;-79
2021/06/06 02:10:16;;;;;;;61.85;32.90;;;;;;;18.87;67.31;97777.25;4975348;28;20045;-79
2021/06/06 02:12:45;;;;;;;59.50;31.95;;;;;;;18.87;66.91;97777.25;5010100;28;20036;-79
2021/06/06 02:15:27;;;;;;;63.72;34.35;;;;;;;18.80;67.45;97779.41;4992981;28;20068;-80
2021/06/06 02:17:56;;;;;;;59.22;32.58;;;;;;;18.99;66.56;97778.69;4977067;28;20033;-80
2021/06/06 02:20:24;;;;;;;60.53;33.13;;;;;;;19.00;66.85;97780.25;4974895;28;20029;-80
2021/06/06 02:22:49;;;;;;;67.78;34.67;;;;;;;18.93;67.35;97785.09;4991402;28;20029;-80
2021/06/06 02:25:16;;;;;;;69.85;36.92;;;;;;;18.88;67.42;97776.19;4977081;28;20671;-79
2021/06/06 02:28:01;;;;;;;69.40;35.97;;;;;;;18.74;67.82;97775.25;4976580;28;20022;-80
2021/06/06 02:30:33;;;;;;;68.70;36.15;;;;;;;18.64;67.59;97767.47;4976395;28;20034;-79
2021/06/06 02:33:07;;;;;;;71.68;36.53;;;;;;;18.72;67.21;97775.53;4974140;28;20038;-80
2021/06/06 02:35:39;;;;;;;71.20;35.67;;;;;;;18.65;67.86;97775.09;4991157;28;20440;-80
2021/06/06 02:38:12;;;;;;;67.43;36.58;;;;;;;18.60;67.87;97771.75;4992981;28;20046;-80
2021/06/06 02:40:44;;;;;;;72.13;36.40;;;;;;;18.62;67.96;97772.25;4978751;28;20039;-79
2021/06/06 02:43:16;;;;;;;71.20;35.90;;;;;;;18.65;67.46;97758.50;4956186;28;20038;-80
2021/06/06 02:45:42;;;;;;;74.97;36.30;;;;;;;18.83;67.32;97755.13;4961688;28;20497;-80
2021/06/06 02:48:13;;;;;;;70.63;34.53;;;;;;;18.78;67.19;97755.19;4970221;28;20049;-79
2021/06/06 02:50:40;;;;;;;74.72;37.85;;;;;;;18.67;67.89;97754.50;4988898;28;20038;-79
2021/06/06 02:53:13;;;;;;;73.05;37.20;;;;;;;18.62;67.80;97765.09;4979404;28;20073;-79
2021/06/06 02:55:43;;;;;;;71.70;36.25;;;;;;;18.61;67.80;97760.91;4993724;28;20121;-79
2021/06/06 02:58:15;;;;;;;68.28;34.17;;;;;;;18.58;67.46;97750.16;4998713;28;20065;-81
2021/06/06 03:00:47;;;;;;;68.38;34.50;;;;;;;18.77;66.76;97760.72;4999821;28;20022;-80
2021/06/06 03:03:22;;;;;;;69.85;35.38;;;;;;;18.56;67.55;97760.97;5001455;28;20087;-79
2021/06/06 03:05:49;;;;;;;63.22;32.95;;;;;;;18.76;67.14;97754.66;4982834;28;20053;-80
2021/06/06 03:08:14;;;;;;;65.75;36.60;;;;;;;18.75;67.05;97749.66;4998721;28;20065;-80
2021/06/06 03:10:41;;;;;;;65.60;35.65;;;;;;;18.76;67.06;97753.88;4982173;28;20579;-81
2021/06/06 03:13:16;;;;;;;67.22;33.97;;;;;;;18.49;67.54;97742.84;4982532;28;20288;-80
2021/06/06 03:15:46;;;;;;;70.32;36.72;;;;;;;18.64;67.51;97749.00;4979489;28;20038;-80
2021/06/06 03:18:11;;;;;;;70.53;34.10;;;;;;;18.72;67.26;97748.38;4983054;28;20473;-80
2021/06/06 03:20:43;;;;;;;68.03;34.67;;;;;;;18.43;68.18;97746.59;5015081;28;20252;-79
2021/06/06 03:23:11;;;;;;;63.05;35.45;;;;;;;18.59;67.59;97755.13;4979484;28;20030;-79
2021/06/06 03:25:44;;;;;;;63.95;34.22;;;;;;;18.60;67.37;97753.28;4986161;28;20069;-80
2021/06/06 03:28:12;;;;;;;69.03;35.55;;;;;;;18.47;67.60;97747.63;5015689;28;20045;-83
2021/06/06 03:30:42;;;;;;;76.65;36.45;;;;;;;18.49;68.66;97750.75;4981998;28;20049;-79
2021/06/06 03:33:13;;;;;;;66.28;35.13;;;;;;;18.40;68.12;97746.38;5014643;28;20041;-79
2021/06/06 03:35:39;;;;;;;73.25;35.28;;;;;;;18.58;67.92;97744.88;4987538;28;20038;-79
2021/06/06 03:38:05;;;;;;;67.43;36.38;;;;;;;18.59;67.53;97755.13;4981708;28;20523;-79
2021/06/06 03:40:36;;;;;;;68.60;35.42;;;;;;;18.44;67.72;97753.47;4998685;28;20385;-80
2021/06/06 03:43:02;;;;;;;69.20;35.05;;;;;;;18.49;68.10;97755.22;4994244;28;20389;-79
2021/06/06 03:45:27;;;;;;;73.78;34.70;;;;;;;18.57;67.58;97753.84;4994956;28;20477;-79
2021/06/06 03:47:58;;;;;;;74.63;36.63;;;;;;;18.48;68.23;97754.47;5013781;28;20084;-79
2021/06/06 03:50:25;;;;;;;74.13;35.70;;;;;;;18.49;68.03;97752.59;4966719;28;20030;-79
2021/06/06 03:52:50;;;;;;;72.82;35.70;;;;;;;18.28;68.87;97755.47;4997435;28;20033;-80
2021/06/06 03:55:18;;;;;;;77.72;36.22;;;;;;;18.28;68.83;97752.03;4979977;28;20034;-79
2021/06/06 03:57:44;;;;;;;78.28;37.15;;;;;;;18.39;68.58;97755.38;4976841;28;20089;-82
2021/06/06 04:00:15;;;;;;;75.32;36.60;;;;;;;18.30;68.19;97748.06;4977949;28;20477;-81
2021/06/06 04:02:42;;;;;;;77.82;37.95;;;;;;;18.40;68.18;97752.44;5010036;28;20029;-80
2021/06/06 04:05:08;;;;;;;77.07;38.28;;;;;;;18.43;68.29;97759.00;4996690;28;20041;-80
2021/06/06 04:07:33;;;;;;;78.75;40.55;;;;;;;18.37;68.54;97753.03;4978371;28;20033;-81
2021/06/06 04:10:01;;;;;;;78.55;41.65;;;;;;;18.44;67.71;97753.47;4995208;28;20038;-80
2021/06/06 04:12:26;;;;;;;71.45;36.97;;;;;;;18.51;68.08;97746.00;4994837;28;20476;-79
2021/06/06 04:14:52;;;;;;;73.68;37.25;;;;;;;18.60;67.46;97748.78;4995049;28;20088;-80
2021/06/06 04:17:17;;;;;;;84.18;39.65;;;;;;;18.60;67.57;97750.66;4978573;28;20037;-80
2021/06/06 04:19:43;;;;;;;84.55;38.42;;;;;;;18.58;67.66;97750.94;4995740;28;20030;-81
2021/06/06 04:22:09;;;;;;;82.82;39.78;;;;;;;18.47;67.81;97752.91;4977719;28;20037;-80
2021/06/06 04:24:34;;;;;;;81.03;39.13;;;;;;;18.51;67.72;97751.25;4994667;28;20037;-80
2021/06/06 04:26:59;;;;;;;79.13;40.83;;;;;;;18.47;68.08;97752.91;4977579;28;20034;-79
2021/06/06 04:29:25;;;;;;;77.32;39.72;;;;;;;18.45;67.75;97747.09;4994901;28;20112;-80
2021/06/06 04:31:50;;;;;;;77.95;39.17;;;;;;;18.53;67.56;97749.13;4977519;28;20040;-80
2021/06/06 04:34:16;;;;;;;73.18;39.28;;;;;;;18.53;67.30;97757.03;4994463;28;20241;-79
2021/06/06 04:36:47;;;;;;;78.80;41.00;;;;;;;18.48;67.41;97753.69;4976027;28;20483;-80
2021/06/06 04:39:12;;;;;;;73.22;38.17;;;;;;;18.45;67.37;97747.09;4994359;28;20124;-80
2021/06/06 04:41:38;;;;;;;76.25;39.47;;;;;;;18.32;67.75;97756.47;4981790;28;20129;-79
2021/06/06 04:44:03;;;;;;;75.30;38.58;;;;;;;18.41;67.48;97756.66;4994388;28;20037;-80
2021/06/06 04:46:29;;;;;;;72.25;37.28;;;;;;;18.45;67.56;97762.91;4994542;28;20100;-79
2021/06/06 04:48:55;;;;;;;78.43;38.90;;;;;;;18.43;67.13;97754.50;4998154;28;20022;-80
2021/06/06 04:51:22;;;;;;;73.25;37.45;;;;;;;18.30;67.88;97768.34;4974782;28;20130;-79
2021/06/06 04:53:48;;;;;;;76.30;37.63;;;;;;;18.40;67.53;97756.94;4973979;28;20049;-80
2021/06/06 04:56:16;;;;;;;69.90;35.95;;;;;;;18.38;67.49;97757.22;4994029;28;20568;-80
2021/06/06 04:58:41;;;;;;;73.15;36.63;;;;;;;18.43;67.58;97745.81;4974982;28;20050;-80
2021/06/06 05:01:07;;;;;;;61.38;33.50;;;;;;;18.43;67.23;97751.88;4992685;28;20119;-80
2021/06/06 05:03:32;;;;;;;64.35;34.30;;;;;;;18.42;66.94;97749.53;4975723;28;20038;-80
2021/06/06 05:05:58;;;;;;;72.20;35.03;;;;;;;18.42;67.08;97755.59;4973848;28;20118;-80
2021/06/06 05:08:24;;;;;;;68.57;36.72;;;;;;;18.36;67.98;97748.78;5008781;28;20030;-79
2021/06/06 05:10:51;;;;;;;70.00;37.00;;;;;;;18.36;67.52;97763.84;4973050;28;20065;-81
2021/06/06 05:13:17;;;;;;;62.13;35.53;;;;;;;18.38;67.01;97764.34;5007346;28;20052;-79
2021/06/06 05:15:42;;;;;;;65.15;34.35;;;;;;;18.43;66.92;97762.41;4973864;28;20034;-79
2021/06/06 05:18:08;;;;;;;60.53;35.15;;;;;;;18.46;67.01;97766.38;5008225;28;20042;-79
2021/06/06 05:20:37;;;;;;;65.82;36.67;;;;;;;18.22;67.55;97771.63;4976437;28;20030;-78
2021/06/06 05:23:03;;;;;;;64.45;33.85;;;;;;;18.37;67.09;97768.84;4992502;28;20453;-79
2021/06/06 05:25:28;;;;;;;66.85;35.83;;;;;;;18.38;67.68;97775.66;4977544;28;20080;-79
2021/06/06 05:27:54;;;;;;;67.93;34.47;;;;;;;18.32;67.69;97767.03;4993203;28;20369;-79
2021/06/06 05:30:24;;;;;;;66.45;35.35;;;;;;;18.29;67.35;97775.50;4976128;28;20126;-79
2021/06/06 05:32:51;;;;;;;61.30;34.17;;;;;;;18.40;67.06;97773.53;4980024;28;20041;-79
2021/06/06 05:35:17;;;;;;;61.45;34.80;;;;;;;18.23;67.80;97774.00;4976912;28;20116;-80
2021/06/06 05:37:43;;;;;;;55.78;33.05;;;;;;;18.27;67.20;97777.63;5005291;28;20080;-79
2021/06/06 05:40:11;;;;;;;58.17;31.13;;;;;;;18.26;67.18;97772.63;4976235;28;20344;-80
2021/06/06 05:42:37;;;;;;;60.03;32.88;;;;;;;18.38;66.59;97780.94;5010494;28;20025;-80
2021/06/06 05:45:04;;;;;;;51.08;29.13;;;;;;;18.28;67.04;97778.41;4976673;28;20080;-83
2021/06/06 05:47:29;;;;;;;53.42;31.25;;;;;;;18.33;66.50;97775.72;4976687;28;20108;-79
2021/06/06 05:49:55;;;;;;;56.88;32.38;;;;;;;18.15;66.79;97782.50;4975342;28;20026;-83
2021/06/06 05:52:20;;;;;;;69.07;33.83;;;;;;;18.22;67.10;97777.69;4990009;28;20026;-79
2021/06/06 05:54:45;;;;;;;53.55;30.83;;;;;;;18.25;66.13;97774.50;4974356;28;20023;-80
2021/06/06 05:57:11;;;;;;;58.10;30.98;;;;;;;18.33;66.35;97778.34;4991495;28;20037;-79
2021/06/06 05:59:36;;;;;;;56.15;31.73;;;;;;;18.25;68.13;97778.97;4990066;28;20367;-80
2021/06/06 06:02:02;;;;;;;52.63;31.58;;;;;;;18.24;67.36;97777.41;4993870;28;20026;-79
2021/06/06 06:04:27;;;;;;;56.28;33.33;;;;;;;18.29;67.31;97777.34;4973317;28;20034;-79
2021/06/06 06:06:52;;;;;;;58.75;32.20;;;;;;;18.31;67.28;97776.00;4976146;28;20445;-79
2021/06/06 06:09:18;;;;;;;59.10;31.63;;;;;;;18.27;67.51;97777.63;4973851;28;20029;-79
2021/06/06 06:11:43;;;;;;;59.63;33.53;;;;;;;18.37;67.02;97778.56;4971415;28;20041;-79
2021/06/06 06:14:09;;;;;;;57.60;32.53;;;;;;;18.41;66.79;97775.09;4972328;28;20057;-79
2021/06/06 06:16:36;;;;;;;62.17;33.83;;;;;;;18.33;67.32;97781.00;5007856;28;20710;-80
2021/06/06 06:19:03;;;;;;;59.30;34.25;;;;;;;18.42;67.10;97776.69;5010034;28;20389;-80
2021/06/06 06:21:30;;;;;;;59.13;32.67;;;;;;;18.46;67.18;97774.28;4972389;28;20026;-79
2021/06/06 06:23:55;;;;;;;53.70;32.42;;;;;;;18.55;66.99;97777.06;4990565;28;20045;-79
2021/06/06 06:26:21;;;;;;;59.00;33.17;;;;;;;18.59;67.00;97780.72;4973264;28;20454;-80
2021/06/06 06:28:47;;;;;;;60.95;32.70;;;;;;;18.60;66.83;97777.03;4970794;28;20053;-80
2021/06/06 06:31:14;;;;;;;57.28;31.83;;;;;;;18.58;66.49;97784.44;5007433;28;20040;-82
2021/06/06 06:33:40;;;;;;;59.13;31.15;;;;;;;18.55;66.78;97780.50;4983758;28;20034;-79
2021/06/06 06:36:06;;;;;;;49.65;29.02;;;;;;;18.60;66.13;97780.44;4991895;28;20095;-80
2021/06/06 06:38:33;;;;;;;50.17;29.58;;;;;;;18.56;66.16;97782.06;4975959;28;20031;-80
2021/06/06 06:40:59;;;;;;;48.70;29.73;;;;;;;18.68;66.01;97779.03;4992875;28;20428;-80
2021/06/06 06:43:24;;;;;;;44.45;27.48;;;;;;;18.50;66.02;97781.31;4991977;28;20040;-80
2021/06/06 06:45:50;;;;;;;52.17;29.98;;;;;;;18.61;65.94;97781.22;4992400;28;20034;-80
2021/06/06 06:48:19;;;;;;;51.45;28.65;;;;;;;18.41;66.42;97790.94;4992032;28;20030;-80
2021/06/06 06:50:45;;;;;;;44.55;25.83;;;;;;;18.59;66.14;97791.25;4975805;28;20125;-79
2021/06/06 06:53:11;;;;;;;45.78;28.80;;;;;;;18.61;66.18;97786.47;4989313;28;20035;-79
2021/06/06 06:55:37;;;;;;;43.55;26.77;;;;;;;18.57;66.32;97793.41;4975199;28;20029;-79
2021/06/06 06:58:04;;;;;;;48.90;28.60;;;;;;;18.46;66.19;97793.50;4975924;28;20034;-79
2021/06/06 07:00:41;;;;;;;45.95;27.50;;;;;;;18.40;66.05;97797.25;4992034;28;20025;-80
2021/06/06 07:03:08;;;;;;;45.42;27.23;;;;;;;18.53;65.96;97793.94;4976572;28;20142;-79
2021/06/06 07:05:34;;;;;;;42.50;26.33;;;;;;;18.55;65.70;97796.31;4991845;28;20040;-81
2021/06/06 07:08:00;;;;;;;42.83;25.83;;;;;;;18.41;66.41;97801.47;4969232;28;20030;-79
2021/06/06 07:10:29;;;;;;;46.20;27.00;;;;;;;18.32;66.18;97803.94;4978672;28;20029;-80
2021/06/06 07:12:54;;;;;;;45.25;25.92;;;;;;;18.51;66.21;97806.63;4975023;28;20438;-83
2021/06/06 07:15:20;;;;;;;40.20;25.10;;;;;;;18.48;66.43;97804.56;4958614;28;20021;-79
2021/06/06 07:17:46;;;;;;;47.58;27.27;;;;;;;18.44;66.43;97811.47;5009278;28;20157;-79
2021/06/06 07:20:15;;;;;;;45.80;27.23;;;;;;;18.44;66.33;97811.47;4991877;28;20108;-79
2021/06/06 07:22:40;;;;;;;44.70;25.75;;;;;;;18.56;65.50;97803.16;4972921;28;20330;-79
2021/06/06 07:25:08;;;;;;;40.80;25.15;;;;;;;18.52;66.12;97802.16;4975373;28;20113;-79
2021/06/06 07:27:37;;;;;;;45.60;26.98;;;;;;;18.36;66.53;97801.53;4972799;28;20559;-81
2021/06/06 07:30:05;;;;;;;48.22;26.23;;;;;;;18.34;66.26;97809.72;4986729;28;20524;-80
2021/06/06 07:32:31;;;;;;;40.00;25.27;;;;;;;18.31;66.25;97814.75;4991890;28;20546;-80
2021/06/06 07:34:56;;;;;;;42.42;24.67;;;;;;;18.17;66.13;97806.72;4995908;28;20030;-80
2021/06/06 07:37:22;;;;;;;44.17;25.70;;;;;;;17.98;66.92;97806.63;4979451;28;20414;-81
2021/06/06 07:39:47;;;;;;;36.60;23.35;;;;;;;18.12;66.20;97810.19;4979860;28;20044;-79
2021/06/06 07:42:13;;;;;;;45.58;25.83;;;;;;;18.25;66.45;97813.22;4992450;28;20023;-81
2021/06/06 07:44:40;;;;;;;40.25;24.27;;;;;;;18.30;66.27;97813.16;4994774;28;20040;-79
2021/06/06 07:47:06;;;;;;;41.40;24.77;;;;;;;18.52;65.81;97813.50;4982034;28;20474;-79
2021/06/06 07:49:37;;;;;;;43.05;25.40;;;;;;;18.50;65.50;97809.56;4979715;28;20076;-78
2021/06/06 07:52:04;;;;;;;37.00;21.95;;;;;;;18.61;65.68;97810.22;4975573;28;20084;-79
2021/06/06 07:54:29;;;;;;;41.65;23.70;;;;;;;18.78;65.51;97805.31;4994776;28;20029;-79
2021/06/06 07:56:57;;;;;;;36.42;22.58;;;;;;;18.88;65.18;97813.13;4987339;28;20034;-79
2021/06/06 07:59:23;;;;;;;37.22;22.40;;;;;;;18.82;65.87;97805.53;5007174;28;20038;-78
2021/06/06 08:01:48;;;;;;;29.73;19.98;;;;;;;18.85;64.98;97815.50;4994742;28;20374;-83
2021/06/06 08:04:14;;;;;;;29.60;20.98;;;;;;;18.61;65.81;97815.50;4978738;28;20038;-80
2021/06/06 08:06:39;;;;;;;34.20;19.45;;;;;;;18.62;65.53;97809.16;4995288;28;20037;-79
2021/06/06 08:09:05;;;;;;;32.15;20.23;;;;;;;18.69;65.58;97812.25;4994861;28;20034;-81
2021/06/06 08:11:32;;;;;;;34.35;20.20;;;;;;;18.95;64.30;97817.25;4988026;28;20076;-81
2021/06/06 08:13:58;;;;;;;28.77;19.80;;;;;;;18.71;65.04;97816.19;4995281;28;20507;-79
2021/06/06 08:16:23;;;;;;;26.55;17.60;;;;;;;19.10;64.12;97817.06;4978326;28;20113;-78
2021/06/06 08:18:49;;;;;;;25.80;17.23;;;;;;;19.15;64.04;97814.34;4994546;28;20164;-78
2021/06/06 08:21:32;;;;;;;29.77;19.38;;;;;;;19.18;63.77;97827.00;4994227;28;20121;-78
2021/06/06 08:23:57;;;;;;;31.50;19.15;;;;;;;19.43;63.26;97817.94;4994873;28;20042;-79
2021/06/06 08:26:24;;;;;;;23.65;16.50;;;;;;;19.51;62.78;97819.16;4975100;28;20096;-81
2021/06/06 08:28:52;;;;;;;26.58;18.38;;;;;;;19.46;62.69;97821.88;4978041;28;20061;-80
2021/06/06 08:31:20;;;;;;;24.02;16.63;;;;;;;19.44;62.16;97813.44;4991569;28;20114;-79
2021/06/06 08:33:46;;;;;;;21.05;15.18;;;;;;;19.48;61.99;97813.66;4976940;28;20034;-78
2021/06/06 08:36:18;;;;;;;23.73;16.20;;;;;;;19.28;62.37;97813.66;5009041;28;20116;-79
2021/06/06 08:38:43;;;;;;;25.30;17.30;;;;;;;19.51;63.21;97819.16;4977995;28;20030;-78
2021/06/06 08:41:17;;;;;;;25.15;18.50;;;;;;;19.54;63.36;97815.94;4994516;28;20040;-79
2021/06/06 08:43:48;;;;;;;23.10;16.23;;;;;;;19.55;62.38;97808.78;4994124;28;20398;-79
2021/06/06 08:46:14;;;;;;;22.48;14.68;;;;;;;19.73;61.73;97805.34;4994458;28;20120;-78
2021/06/06 08:48:40;;;;;;;16.77;12.93;;;;;;;19.81;61.99;97803.94;4994470;28;20034;-79
2021/06/06 08:51:18;;;;;;;17.98;13.13;;;;;;;19.55;61.81;97806.94;4994013;28;20080;-79
2021/06/06 08:54:00;;;;;;;21.13;13.93;;;;;;;19.63;61.76;97808.16;5011762;28;20030;-79
2021/06/06 08:56:28;;;;;;;16.80;12.95;;;;;;;20.02;60.06;97805.16;4988511;28;20054;-78
2021/06/06 08:59:12;;;;;;;18.42;14.00;;;;;;;20.12;60.89;97808.72;4976030;28;20579;-78
2021/06/06 09:01:43;;;;;;;16.23;12.88;;;;;;;20.27;60.02;97803.19;4979782;28;20042;-79
2021/06/06 09:04:31;;;;;;;17.58;12.07;;;;;;;19.88;61.84;97803.56;4987769;28;20398;-80
2021/06/06 09:07:07;;;;;;;16.20;12.43;;;;;;;20.13;60.52;97807.63;4995318;28;20029;-79
2021/06/06 09:09:37;;;;;;;17.15;12.48;;;;;;;20.18;60.65;97808.31;4981857;28;20124;-79
2021/06/06 09:12:05;;;;;;;15.60;11.85;;;;;;;20.27;59.70;97805.81;4993452;28;20058;-80
2021/06/06 09:14:31;;;;;;;16.75;11.40;;;;;;;20.37;59.34;97802.19;4993505;28;20100;-80
2021/06/06 09:17:04;;;;;;;16.65;11.18;;;;;;;20.64;58.55;97804.09;4991988;28;20489;-79
2021/06/06 09:19:45;;;;;;;18.98;12.07;;;;;;;20.84;59.26;97802.91;4993263;28;20293;-79
2021/06/06 09:22:12;;;;;;;17.58;12.90;;;;;;;21.11;57.90;97804.75;4993085;28;20018;-78
2021/06/06 09:24:44;;;;;;;14.20;10.90;;;;;;;21.13;56.86;97805.22;4992681;28;20531;-79
2021/06/06 09:27:22;;;;;;;17.13;12.35;;;;;;;20.99;56.61;97807.13;4975619;28;20108;-78
2021/06/06 09:30:14;;;;;;;14.93;11.57;;;;;;;20.95;56.26;97816.72;5010234;28;20033;-78
2021/06/06 09:32:41;;;;;;;14.07;11.45;;;;;;;21.07;56.86;97816.22;5008518;28;20099;-78
2021/06/06 09:35:23;;;;;;;15.27;11.10;;;;;;;20.67;58.21;97819.38;4977866;28;20412;-78
2021/06/06 09:38:02;;;;;;;15.20;11.98;;;;;;;20.69;58.76;97822.53;4973128;28;20500;-78
2021/06/06 09:40:35;;;;;;;15.10;11.93;;;;;;;20.96;56.42;97813.00;4974307;28;20058;-78
2021/06/06 09:43:01;;;;;;;15.07;10.82;;;;;;;21.00;58.02;97819.25;4969325;28;20033;-78
2021/06/06 09:45:32;;;;;;;13.70;10.63;;;;;;;20.91;58.73;97816.53;4984948;28;20477;-78
2021/06/06 09:48:08;;;;;;;13.43;10.77;;;;;;;20.99;57.11;97815.06;4986974;28;20033;-78
2021/06/06 09:50:48;;;;;;;13.32;10.82;;;;;;;20.92;56.47;97812.00;4974508;28;20100;-78
2021/06/06 09:53:30;;;;;;;13.95;10.63;;;;;;;20.93;57.19;97821.53;4991872;28;20025;-79
2021/06/06 09:56:08;;;;;;;15.35;11.52;;;;;;;20.67;58.31;97822.03;4991590;28;20025;-78
2021/06/06 09:58:37;;;;;;;13.75;10.48;;;;;;;20.81;56.96;97818.59;4973482;28;20124;-78
2021/06/06 10:01:27;;;;;;;13.63;10.63;;;;;;;20.48;57.26;97823.97;4992011;28;20054;-78
2021/06/06 10:04:02;;;;;;;12.57;9.80;;;;;;;20.66;57.38;97822.31;4975931;28;20038;-78
2021/06/06 10:06:31;;;;;;;13.75;10.98;;;;;;;20.64;58.20;97825.25;4975287;28;20153;-78
2021/06/06 10:09:11;;;;;;;14.40;10.95;;;;;;;20.59;58.42;97823.47;4992619;28;20117;-78
2021/06/06 10:11:44;;;;;;;14.95;11.65;;;;;;;20.47;58.61;97825.03;4973004;28;20027;-78
2021/06/06 10:14:10;;;;;;;16.98;12.32;;;;;;;20.51;58.91;97821.50;4976383;28;20034;-78
2021/06/06 10:16:39;;;;;;;15.30;11.50;;;;;;;20.53;58.91;97827.28;4992295;28;20054;-78
2021/06/06 10:19:11;;;;;;;13.52;10.80;;;;;;;20.51;59.67;97810.13;4974321;28;20042;-78
2021/06/06 10:21:37;;;;;;;13.35;10.63;;;;;;;20.87;57.34;97814.75;4993280;28;20096;-78
2021/06/06 10:24:15;;;;;;;12.88;10.82;;;;;;;20.59;58.69;97823.47;4975930;28;20038;-78
2021/06/06 10:26:48;;;;;;;16.48;12.20;;;;;;;20.52;59.22;97824.94;4974144;28;20116;-78
2021/06/06 10:29:33;;;;;;;13.20;11.00;;;;;;;20.59;58.52;97827.97;4973697;28;20374;-78
2021/06/06 10:32:07;;;;;;;14.27;10.20;;;;;;;20.64;58.44;97822.63;4975574;28;20504;-78
2021/06/06 10:34:37;;;;;;;12.23;10.20;;;;;;;20.84;58.62;97831.25;4995406;28;20505;-78
2021/06/06 10:37:03;;;;;;;15.10;11.45;;;;;;;20.92;57.94;97823.41;4989582;28;20063;-78
2021/06/06 10:39:38;;;;;;;13.70;10.63;;;;;;;20.61;59.03;97828.47;4993054;28;20030;-78
2021/06/06 10:42:24;;;;;;;14.60;10.98;;;;;;;20.95;57.36;97830.72;4971096;28;20486;-78
2021/06/06 10:45:10;;;;;;;13.90;11.38;;;;;;;20.71;58.58;97828.28;4984486;28;20324;-78
2021/06/06 10:47:41;;;;;;;16.15;12.57;;;;;;;20.76;59.54;97822.13;4986302;28;20108;-78
2021/06/06 10:50:22;;;;;;;15.75;11.82;;;;;;;20.42;59.45;97825.91;4975410;28;20034;-78
2021/06/06 10:52:50;;;;;;;16.85;12.75;;;;;;;20.47;59.49;97819.75;5008961;28;20041;-79
2021/06/06 10:55:19;;;;;;;16.15;12.32;;;;;;;20.58;59.53;97823.78;5007949;28;20488;-78
2021/06/06 10:57:45;;;;;;;14.93;12.00;;;;;;;20.59;59.28;97825.31;4990450;28;20546;-79
2021/06/06 11:00:39;;;;;;;16.50;12.88;;;;;;;20.56;58.88;97820.63;4973592;28;20034;-78
2021/06/06 11:03:11;;;;;;;16.05;11.40;;;;;;;20.85;56.99;97819.56;4991323;28;20096;-78
2021/06/06 11:05:48;;;;;;;15.65;11.23;;;;;;;20.89;57.67;97812.63;5008953;28;20331;-78
2021/06/06 11:08:18;;;;;;;16.33;12.18;;;;;;;20.87;58.22;97822.69;4991898;28;20393;-78
2021/06/06 11:10:44;;;;;;;16.35;12.90;;;;;;;20.78;57.99;97814.66;4995736;28;20036;-78
2021/06/06 11:13:32;;;;;;;18.75;12.65;;;;;;;20.70;58.80;97812.72;4978320;28;20042;-78
2021/06/06 11:16:05;;;;;;;18.05;12.98;;;;;;;21.01;59.34;97815.53;4975743;28;20022;-78
2021/06/06 11:19:02;;;;;;;14.20;11.48;;;;;;;21.03;58.39;97812.59;4994877;28;20088;-79
2021/06/06 11:21:29;;;;;;;13.60;10.90;;;;;;;21.21;58.30;97816.97;4982950;28;20142;-79
2021/06/06 11:23:58;;;;;;;16.33;12.73;;;;;;;21.11;58.45;97802.09;4977977;28;20029;-79
2021/06/06 11:26:32;;;;;;;16.17;12.40;;;;;;;20.95;58.23;97798.97;4978741;28;20037;-78